sensor_id;sensor_type;location;lat;lon;timestamp;temperature;humidity
78896;HTU21D;68284;59.124;37.910;2023-04-24T00:01:32;10.92;56.28
78896;HTU21D;68284;59.124;37.910;2023-04-24T00:04:00;10.90;56.38
78896;HTU21D;68284;59.124;37.910;2023-04-24T00:06:28;10.89;56.48
78896;HTU21D;68284;59.124;37.910;2023-04-24T00:09:00;10.89;56.55
78896;HTU21D;68284;59.124;37.910;2023-04-24T00:11:28;10.89;56.63
78896;HTU21D;68284;59.124;37.910;2023-04-24T00:13:56;10.88;56.74
78896;HTU21D;68284;59.124;37.910;2023-04-24T00:16:23;10.89;56.86
78896;HTU21D;68284;59.124;37.910;2023-04-24T00:18:49;10.90;56.87
78896;HTU21D;68284;59.124;37.910;2023-04-24T00:21:19;10.88;56.93
78896;HTU21D;68284;59.124;37.910;2023-04-24T00:23:46;10.88;57.03
78896;HTU21D;68284;59.124;37.910;2023-04-24T00:26:13;10.86;57.08
78896;HTU21D;68284;59.124;37.910;2023-04-24T00:28:40;10.85;57.17
78896;HTU21D;68284;59.124;37.910;2023-04-24T00:31:06;10.82;57.20
78896;HTU21D;68284;59.124;37.910;2023-04-24T00:33:34;10.81;56.97
78896;HTU21D;68284;59.124;37.910;2023-04-24T00:36:00;10.80;57.11
78896;HTU21D;68284;59.124;37.910;2023-04-24T00:38:27;10.80;57.24
78896;HTU21D;68284;59.124;37.910;2023-04-24T00:40:53;10.79;57.32
78896;HTU21D;68284;59.124;37.910;2023-04-24T00:43:20;10.79;57.44
78896;HTU21D;68284;59.124;37.910;2023-04-24T00:45:48;10.80;57.51
78896;HTU21D;68284;59.124;37.910;2023-04-24T00:48:14;10.79;57.65
78896;HTU21D;68284;59.124;37.910;2023-04-24T00:50:42;10.79;57.32
78896;HTU21D;68284;59.124;37.910;2023-04-24T00:53:09;10.80;57.43
78896;HTU21D;68284;59.124;37.910;2023-04-24T00:55:35;10.79;57.56
78896;HTU21D;68284;59.124;37.910;2023-04-24T00:58:03;10.77;57.62
78896;HTU21D;68284;59.124;37.910;2023-04-24T01:00:29;10.79;57.81
78896;HTU21D;68284;59.124;37.910;2023-04-24T01:02:58;10.77;57.50
78896;HTU21D;68284;59.124;37.910;2023-04-24T01:05:27;10.75;57.61
78896;HTU21D;68284;59.124;37.910;2023-04-24T01:07:54;10.75;57.73
78896;HTU21D;68284;59.124;37.910;2023-04-24T01:10:23;10.74;57.85
78896;HTU21D;68284;59.124;37.910;2023-04-24T01:12:52;10.74;57.89
78896;HTU21D;68284;59.124;37.910;2023-04-24T01:15:19;10.74;57.99
78896;HTU21D;68284;59.124;37.910;2023-04-24T01:17:46;10.72;58.06
78896;HTU21D;68284;59.124;37.910;2023-04-24T01:20:14;10.71;58.14
78896;HTU21D;68284;59.124;37.910;2023-04-24T01:22:42;10.70;58.21
78896;HTU21D;68284;59.124;37.910;2023-04-24T01:25:09;10.68;58.32
78896;HTU21D;68284;59.124;37.910;2023-04-24T01:27:35;10.64;58.39
78896;HTU21D;68284;59.124;37.910;2023-04-24T01:30:02;10.60;58.51
78896;HTU21D;68284;59.124;37.910;2023-04-24T01:32:30;10.58;58.59
78896;HTU21D;68284;59.124;37.910;2023-04-24T01:34:57;10.53;58.71
78896;HTU21D;68284;59.124;37.910;2023-04-24T01:37:24;10.51;58.83
78896;HTU21D;68284;59.124;37.910;2023-04-24T01:39:50;10.46;58.96
78896;HTU21D;68284;59.124;37.910;2023-04-24T01:42:18;10.41;59.11
78896;HTU21D;68284;59.124;37.910;2023-04-24T01:44:46;10.38;59.24
78896;HTU21D;68284;59.124;37.910;2023-04-24T01:47:13;10.31;59.33
78896;HTU21D;68284;59.124;37.910;2023-04-24T01:49:39;10.28;59.15
78896;HTU21D;68284;59.124;37.910;2023-04-24T01:52:06;10.26;59.33
78896;HTU21D;68284;59.124;37.910;2023-04-24T01:54:32;10.24;59.52
78896;HTU21D;68284;59.124;37.910;2023-04-24T01:56:58;10.22;59.57
78896;HTU21D;68284;59.124;37.910;2023-04-24T01:59:28;10.22;59.37
78896;HTU21D;68284;59.124;37.910;2023-04-24T02:01:54;10.23;59.50
78896;HTU21D;68284;59.124;37.910;2023-04-24T02:04:21;10.25;59.58
78896;HTU21D;68284;59.124;37.910;2023-04-24T02:06:47;10.29;59.61
78896;HTU21D;68284;59.124;37.910;2023-04-24T02:09:14;10.34;59.61
78896;HTU21D;68284;59.124;37.910;2023-04-24T02:11:40;10.40;59.53
78896;HTU21D;68284;59.124;37.910;2023-04-24T02:14:07;10.46;59.46
78896;HTU21D;68284;59.124;37.910;2023-04-24T02:16:34;10.53;59.38
78896;HTU21D;68284;59.124;37.910;2023-04-24T02:19:03;10.57;59.32
78896;HTU21D;68284;59.124;37.910;2023-04-24T02:21:30;10.64;59.24
78896;HTU21D;68284;59.124;37.910;2023-04-24T02:23:57;10.66;59.18
78896;HTU21D;68284;59.124;37.910;2023-04-24T02:26:25;10.70;59.13
78896;HTU21D;68284;59.124;37.910;2023-04-24T02:28:51;10.72;59.06
78896;HTU21D;68284;59.124;37.910;2023-04-24T02:31:20;10.75;59.05
78896;HTU21D;68284;59.124;37.910;2023-04-24T02:33:47;10.78;58.99
78896;HTU21D;68284;59.124;37.910;2023-04-24T02:36:14;10.82;58.92
78896;HTU21D;68284;59.124;37.910;2023-04-24T02:38:41;10.87;58.83
78896;HTU21D;68284;59.124;37.910;2023-04-24T02:41:07;10.90;58.77
78896;HTU21D;68284;59.124;37.910;2023-04-24T02:43:33;10.96;58.49
78896;HTU21D;68284;59.124;37.910;2023-04-24T02:46:00;11.01;58.44
78896;HTU21D;68284;59.124;37.910;2023-04-24T02:48:26;11.08;58.37
78896;HTU21D;68284;59.124;37.910;2023-04-24T02:50:53;11.14;58.09
78896;HTU21D;68284;59.124;37.910;2023-04-24T02:53:19;11.22;57.98
78896;HTU21D;68284;59.124;37.910;2023-04-24T02:55:47;11.31;57.86
78896;HTU21D;68284;59.124;37.910;2023-04-24T02:58:13;11.42;57.73
78896;HTU21D;68284;59.124;37.910;2023-04-24T03:00:43;11.52;57.57
78896;HTU21D;68284;59.124;37.910;2023-04-24T03:03:09;11.61;57.42
78896;HTU21D;68284;59.124;37.910;2023-04-24T03:05:38;11.67;57.26
78896;HTU21D;68284;59.124;37.910;2023-04-24T03:08:05;11.73;57.13
78896;HTU21D;68284;59.124;37.910;2023-04-24T03:10:32;11.79;57.04
78896;HTU21D;68284;59.124;37.910;2023-04-24T03:12:58;11.82;56.97
78896;HTU21D;68284;59.124;37.910;2023-04-24T03:15:25;11.85;56.90
78896;HTU21D;68284;59.124;37.910;2023-04-24T03:17:51;11.86;56.91
78896;HTU21D;68284;59.124;37.910;2023-04-24T03:20:18;11.87;56.81
78896;HTU21D;68284;59.124;37.910;2023-04-24T03:22:44;11.90;56.75
78896;HTU21D;68284;59.124;37.910;2023-04-24T03:25:12;11.93;56.58
78896;HTU21D;68284;59.124;37.910;2023-04-24T03:27:39;11.96;56.52
78896;HTU21D;68284;59.124;37.910;2023-04-24T03:30:13;12.01;56.46
78896;HTU21D;68284;59.124;37.910;2023-04-24T03:32:46;12.04;56.41
78896;HTU21D;68284;59.124;37.910;2023-04-24T03:35:15;12.05;56.39
78896;HTU21D;68284;59.124;37.910;2023-04-24T03:37:42;12.07;56.32
78896;HTU21D;68284;59.124;37.910;2023-04-24T03:40:49;12.06;56.18
78896;HTU21D;68284;59.124;37.910;2023-04-24T03:43:32;12.07;56.09
78896;HTU21D;68284;59.124;37.910;2023-04-24T03:46:01;12.10;56.03
78896;HTU21D;68284;59.124;37.910;2023-04-24T03:48:36;12.11;55.96
78896;HTU21D;68284;59.124;37.910;2023-04-24T03:51:08;12.12;55.92
78896;HTU21D;68284;59.124;37.910;2023-04-24T03:53:36;12.15;55.75
78896;HTU21D;68284;59.124;37.910;2023-04-24T03:56:05;12.20;55.64
78896;HTU21D;68284;59.124;37.910;2023-04-24T03:58:32;12.25;55.51
78896;HTU21D;68284;59.124;37.910;2023-04-24T04:00:59;12.30;55.37
78896;HTU21D;68284;59.124;37.910;2023-04-24T04:03:38;12.41;55.22
78896;HTU21D;68284;59.124;37.910;2023-04-24T04:06:05;12.49;54.97
78896;HTU21D;68284;59.124;37.910;2023-04-24T04:08:31;12.60;54.73
78896;HTU21D;68284;59.124;37.910;2023-04-24T04:10:57;12.71;54.55
78896;HTU21D;68284;59.124;37.910;2023-04-24T04:13:24;12.84;54.35
78896;HTU21D;68284;59.124;37.910;2023-04-24T04:15:50;12.94;54.08
78896;HTU21D;68284;59.124;37.910;2023-04-24T04:18:16;13.06;53.88
78896;HTU21D;68284;59.124;37.910;2023-04-24T04:20:43;13.17;53.72
78896;HTU21D;68284;59.124;37.910;2023-04-24T04:23:11;13.24;53.54
78896;HTU21D;68284;59.124;37.910;2023-04-24T04:25:50;13.36;53.33
78896;HTU21D;68284;59.124;37.910;2023-04-24T04:28:21;13.43;53.19
78896;HTU21D;68284;59.124;37.910;2023-04-24T04:30:48;13.49;53.05
78896;HTU21D;68284;59.124;37.910;2023-04-24T04:33:17;13.51;52.91
78896;HTU21D;68284;59.124;37.910;2023-04-24T04:35:44;13.55;52.78
78896;HTU21D;68284;59.124;37.910;2023-04-24T04:38:15;13.62;52.65
78896;HTU21D;68284;59.124;37.910;2023-04-24T04:40:45;13.71;52.47
78896;HTU21D;68284;59.124;37.910;2023-04-24T04:43:13;13.85;52.22
78896;HTU21D;68284;59.124;37.910;2023-04-24T04:45:48;13.96;51.96
78896;HTU21D;68284;59.124;37.910;2023-04-24T04:48:37;14.10;51.77
78896;HTU21D;68284;59.124;37.910;2023-04-24T04:51:06;14.21;51.50
78896;HTU21D;68284;59.124;37.910;2023-04-24T04:53:34;14.32;51.29
78896;HTU21D;68284;59.124;37.910;2023-04-24T04:56:02;14.42;51.14
78896;HTU21D;68284;59.124;37.910;2023-04-24T04:58:36;14.54;50.95
78896;HTU21D;68284;59.124;37.910;2023-04-24T05:01:04;14.65;50.69
78896;HTU21D;68284;59.124;37.910;2023-04-24T05:03:36;14.73;50.46
78896;HTU21D;68284;59.124;37.910;2023-04-24T05:06:07;14.80;50.33
78896;HTU21D;68284;59.124;37.910;2023-04-24T05:08:37;14.86;50.19
78896;HTU21D;68284;59.124;37.910;2023-04-24T05:11:05;14.89;50.02
78896;HTU21D;68284;59.124;37.910;2023-04-24T05:13:41;14.96;49.87
78896;HTU21D;68284;59.124;37.910;2023-04-24T05:16:28;14.99;49.79
78896;HTU21D;68284;59.124;37.910;2023-04-24T05:18:56;15.06;49.66
78896;HTU21D;68284;59.124;37.910;2023-04-24T05:21:28;15.12;49.53
78896;HTU21D;68284;59.124;37.910;2023-04-24T05:23:55;15.18;49.34
78896;HTU21D;68284;59.124;37.910;2023-04-24T05:26:40;15.24;49.21
78896;HTU21D;68284;59.124;37.910;2023-04-24T05:29:08;15.28;49.12
78896;HTU21D;68284;59.124;37.910;2023-04-24T05:31:34;15.34;48.94
78896;HTU21D;68284;59.124;37.910;2023-04-24T05:34:02;15.40;48.76
78896;HTU21D;68284;59.124;37.910;2023-04-24T05:40:24;15.53;48.41
78896;HTU21D;68284;59.124;37.910;2023-04-24T05:42:51;15.58;48.43
78896;HTU21D;68284;59.124;37.910;2023-04-24T05:45:46;15.62;48.03
78896;HTU21D;68284;59.124;37.910;2023-04-24T05:48:12;15.63;48.17
78896;HTU21D;68284;59.124;37.910;2023-04-24T05:50:42;15.68;48.14
78896;HTU21D;68284;59.124;37.910;2023-04-24T05:53:13;15.73;47.98
78896;HTU21D;68284;59.124;37.910;2023-04-24T05:55:42;15.77;47.92
78896;HTU21D;68284;59.124;37.910;2023-04-24T05:58:11;15.86;47.86
78896;HTU21D;68284;59.124;37.910;2023-04-24T06:00:45;15.95;47.71
78896;HTU21D;68284;59.124;37.910;2023-04-24T06:03:15;16.03;47.56
78896;HTU21D;68284;59.124;37.910;2023-04-24T06:05:44;16.04;47.41
78896;HTU21D;68284;59.124;37.910;2023-04-24T06:08:13;16.02;47.44
78896;HTU21D;68284;59.124;37.910;2023-04-24T06:10:43;16.00;47.45
78896;HTU21D;68284;59.124;37.910;2023-04-24T06:13:16;16.01;47.50
78896;HTU21D;68284;59.124;37.910;2023-04-24T06:16:00;16.04;47.44
78896;HTU21D;68284;59.124;37.910;2023-04-24T06:18:36;16.07;47.29
78896;HTU21D;68284;59.124;37.910;2023-04-24T06:21:06;16.05;47.31
78896;HTU21D;68284;59.124;37.910;2023-04-24T06:23:37;16.02;47.38
78896;HTU21D;68284;59.124;37.910;2023-04-24T06:26:12;16.02;47.34
78896;HTU21D;68284;59.124;37.910;2023-04-24T06:28:47;16.02;47.37
78896;HTU21D;68284;59.124;37.910;2023-04-24T06:31:15;16.02;47.37
78896;HTU21D;68284;59.124;37.910;2023-04-24T06:33:42;16.04;47.32
78896;HTU21D;68284;59.124;37.910;2023-04-24T06:36:41;16.07;47.30
78896;HTU21D;68284;59.124;37.910;2023-04-24T06:39:59;16.18;47.18
78896;HTU21D;68284;59.124;37.910;2023-04-24T06:43:13;16.31;46.92
78896;HTU21D;68284;59.124;37.910;2023-04-24T06:45:57;16.42;46.86
78896;HTU21D;68284;59.124;37.910;2023-04-24T06:49:00;16.55;46.62
78896;HTU21D;68284;59.124;37.910;2023-04-24T06:52:09;16.67;46.47
78896;HTU21D;68284;59.124;37.910;2023-04-24T06:55:00;16.85;46.22
78896;HTU21D;68284;59.124;37.910;2023-04-24T06:57:27;17.02;45.95
78896;HTU21D;68284;59.124;37.910;2023-04-24T06:59:55;17.20;45.60
78896;HTU21D;68284;59.124;37.910;2023-04-24T07:02:33;17.41;45.25
78896;HTU21D;68284;59.124;37.910;2023-04-24T07:05:06;17.59;44.93
78896;HTU21D;68284;59.124;37.910;2023-04-24T07:07:34;17.73;44.69
78896;HTU21D;68284;59.124;37.910;2023-04-24T07:10:04;17.89;44.41
78896;HTU21D;68284;59.124;37.910;2023-04-24T07:12:31;18.06;44.02
78896;HTU21D;68284;59.124;37.910;2023-04-24T07:14:58;18.20;43.65
78896;HTU21D;68284;59.124;37.910;2023-04-24T07:17:24;18.34;43.36
78896;HTU21D;68284;59.124;37.910;2023-04-24T07:19:50;18.40;43.10
78896;HTU21D;68284;59.124;37.910;2023-04-24T07:22:17;18.46;42.97
78896;HTU21D;68284;59.124;37.910;2023-04-24T07:24:44;18.55;42.82
78896;HTU21D;68284;59.124;37.910;2023-04-24T07:27:11;18.67;42.63
78896;HTU21D;68284;59.124;37.910;2023-04-24T07:29:38;18.78;42.34
78896;HTU21D;68284;59.124;37.910;2023-04-24T07:32:06;18.85;42.13
78896;HTU21D;68284;59.124;37.910;2023-04-24T07:34:32;18.92;41.96
78896;HTU21D;68284;59.124;37.910;2023-04-24T07:37:05;19.05;41.89
78896;HTU21D;68284;59.124;37.910;2023-04-24T07:39:43;19.15;41.74
78896;HTU21D;68284;59.124;37.910;2023-04-24T07:43:36;19.41;41.48
78896;HTU21D;68284;59.124;37.910;2023-04-24T07:46:17;19.65;40.98
78896;HTU21D;68284;59.124;37.910;2023-04-24T07:48:46;19.83;40.62
78896;HTU21D;68284;59.124;37.910;2023-04-24T07:51:44;20.12;39.92
78896;HTU21D;68284;59.124;37.910;2023-04-24T07:54:45;20.28;39.76
78896;HTU21D;68284;59.124;37.910;2023-04-24T07:57:16;20.32;39.43
78896;HTU21D;68284;59.124;37.910;2023-04-24T08:00:16;20.39;39.17
78896;HTU21D;68284;59.124;37.910;2023-04-24T08:02:55;20.35;39.07
78896;HTU21D;68284;59.124;37.910;2023-04-24T08:05:52;20.35;39.09
78896;HTU21D;68284;59.124;37.910;2023-04-24T08:08:21;20.40;39.14
78896;HTU21D;68284;59.124;37.910;2023-04-24T08:10:49;20.47;39.04
78896;HTU21D;68284;59.124;37.910;2023-04-24T08:13:24;20.45;38.75
78896;HTU21D;68284;59.124;37.910;2023-04-24T08:16:03;20.42;38.71
78896;HTU21D;68284;59.124;37.910;2023-04-24T08:18:29;20.45;38.56
78896;HTU21D;68284;59.124;37.910;2023-04-24T08:20:59;20.53;38.38
78896;HTU21D;68284;59.124;37.910;2023-04-24T08:23:38;20.62;38.17
78896;HTU21D;68284;59.124;37.910;2023-04-24T08:26:07;20.68;37.97
78896;HTU21D;68284;59.124;37.910;2023-04-24T08:28:37;20.76;37.75
78896;HTU21D;68284;59.124;37.910;2023-04-24T08:31:05;20.81;37.51
78896;HTU21D;68284;59.124;37.910;2023-04-24T08:33:39;20.84;37.44
78896;HTU21D;68284;59.124;37.910;2023-04-24T08:36:09;20.91;37.17
78896;HTU21D;68284;59.124;37.910;2023-04-24T08:38:38;20.95;37.03
78896;HTU21D;68284;59.124;37.910;2023-04-24T08:41:44;21.05;36.67
78896;HTU21D;68284;59.124;37.910;2023-04-24T08:44:20;21.04;36.33
78896;HTU21D;68284;59.124;37.910;2023-04-24T08:46:50;21.04;36.11
78896;HTU21D;68284;59.124;37.910;2023-04-24T08:49:20;21.02;35.72
78896;HTU21D;68284;59.124;37.910;2023-04-24T08:52:26;21.00;35.70
78896;HTU21D;68284;59.124;37.910;2023-04-24T08:55:01;21.03;35.69
78896;HTU21D;68284;59.124;37.910;2023-04-24T08:57:32;21.04;35.59
78896;HTU21D;68284;59.124;37.910;2023-04-24T09:00:01;21.06;35.47
78896;HTU21D;68284;59.124;37.910;2023-04-24T09:02:28;21.13;35.40
78896;HTU21D;68284;59.124;37.910;2023-04-24T09:04:56;21.19;35.34
78896;HTU21D;68284;59.124;37.910;2023-04-24T09:07:24;21.23;35.00
78896;HTU21D;68284;59.124;37.910;2023-04-24T09:09:55;21.28;34.76
78896;HTU21D;68284;59.124;37.910;2023-04-24T09:12:22;21.31;34.35
78896;HTU21D;68284;59.124;37.910;2023-04-24T09:14:51;21.40;33.99
78896;HTU21D;68284;59.124;37.910;2023-04-24T09:17:26;21.50;33.18
78896;HTU21D;68284;59.124;37.910;2023-04-24T09:19:55;21.60;32.72
78896;HTU21D;68284;59.124;37.910;2023-04-24T09:22:36;21.66;32.35
78896;HTU21D;68284;59.124;37.910;2023-04-24T09:25:31;21.81;31.57
78896;HTU21D;68284;59.124;37.910;2023-04-24T09:28:31;21.96;30.45
78896;HTU21D;68284;59.124;37.910;2023-04-24T09:31:26;22.12;29.93
78896;HTU21D;68284;59.124;37.910;2023-04-24T09:34:04;22.27;29.41
78896;HTU21D;68284;59.124;37.910;2023-04-24T09:36:57;22.40;29.52
78896;HTU21D;68284;59.124;37.910;2023-04-24T09:39:24;22.53;29.19
78896;HTU21D;68284;59.124;37.910;2023-04-24T09:41:51;22.65;28.87
78896;HTU21D;68284;59.124;37.910;2023-04-24T09:44:18;22.75;28.39
78896;HTU21D;68284;59.124;37.910;2023-04-24T09:46:53;22.78;28.10
78896;HTU21D;68284;59.124;37.910;2023-04-24T09:49:23;22.81;28.03
78896;HTU21D;68284;59.124;37.910;2023-04-24T09:51:51;22.88;27.57
78896;HTU21D;68284;59.124;37.910;2023-04-24T09:54:19;22.93;27.52
78896;HTU21D;68284;59.124;37.910;2023-04-24T09:56:50;22.99;27.71
78896;HTU21D;68284;59.124;37.910;2023-04-24T09:59:18;23.06;27.45
78896;HTU21D;68284;59.124;37.910;2023-04-24T10:01:46;23.00;27.12
78896;HTU21D;68284;59.124;37.910;2023-04-24T10:04:38;22.94;27.14
78896;HTU21D;68284;59.124;37.910;2023-04-24T10:07:06;23.02;27.09
78896;HTU21D;68284;59.124;37.910;2023-04-24T10:09:45;23.22;26.45
78896;HTU21D;68284;59.124;37.910;2023-04-24T10:12:19;23.28;26.13
78896;HTU21D;68284;59.124;37.910;2023-04-24T10:15:12;23.39;25.90
78896;HTU21D;68284;59.124;37.910;2023-04-24T10:17:41;23.49;25.94
78896;HTU21D;68284;59.124;37.910;2023-04-24T10:20:16;23.53;25.68
78896;HTU21D;68284;59.124;37.910;2023-04-24T10:22:50;23.54;25.79
78896;HTU21D;68284;59.124;37.910;2023-04-24T10:25:42;23.60;25.06
78896;HTU21D;68284;59.124;37.910;2023-04-24T10:28:37;23.59;25.20
78896;HTU21D;68284;59.124;37.910;2023-04-24T10:31:07;23.62;25.20
78896;HTU21D;68284;59.124;37.910;2023-04-24T10:33:35;23.67;25.27
78896;HTU21D;68284;59.124;37.910;2023-04-24T10:36:03;23.77;25.11
78896;HTU21D;68284;59.124;37.910;2023-04-24T10:38:34;23.94;25.08
78896;HTU21D;68284;59.124;37.910;2023-04-24T10:41:10;24.19;24.69
78896;HTU21D;68284;59.124;37.910;2023-04-24T10:43:45;24.41;24.55
78896;HTU21D;68284;59.124;37.910;2023-04-24T10:46:19;24.58;24.28
78896;HTU21D;68284;59.124;37.910;2023-04-24T10:48:54;24.79;24.09
78896;HTU21D;68284;59.124;37.910;2023-04-24T10:51:22;24.99;24.01
78896;HTU21D;68284;59.124;37.910;2023-04-24T10:53:52;25.21;23.85
78896;HTU21D;68284;59.124;37.910;2023-04-24T10:56:21;25.42;23.42
78896;HTU21D;68284;59.124;37.910;2023-04-24T10:59:34;25.74;23.16
78896;HTU21D;68284;59.124;37.910;2023-04-24T11:02:03;26.05;22.63
78896;HTU21D;68284;59.124;37.910;2023-04-24T11:04:40;26.26;21.89
78896;HTU21D;68284;59.124;37.910;2023-04-24T11:07:15;26.36;21.66
78896;HTU21D;68284;59.124;37.910;2023-04-24T11:09:42;26.49;21.49
78896;HTU21D;68284;59.124;37.910;2023-04-24T11:12:12;26.71;21.33
78896;HTU21D;68284;59.124;37.910;2023-04-24T11:17:34;26.91;20.76
78896;HTU21D;68284;59.124;37.910;2023-04-24T11:20:17;26.92;20.34
78896;HTU21D;68284;59.124;37.910;2023-04-24T11:22:54;26.92;20.32
78896;HTU21D;68284;59.124;37.910;2023-04-24T11:25:31;27.04;20.43
78896;HTU21D;68284;59.124;37.910;2023-04-24T11:28:04;27.12;20.31
78896;HTU21D;68284;59.124;37.910;2023-04-24T11:30:34;27.35;20.25
78896;HTU21D;68284;59.124;37.910;2023-04-24T11:33:09;27.57;19.74
78896;HTU21D;68284;59.124;37.910;2023-04-24T11:35:42;27.65;19.43
78896;HTU21D;68284;59.124;37.910;2023-04-24T11:38:11;27.79;19.38
78896;HTU21D;68284;59.124;37.910;2023-04-24T11:40:39;27.95;19.14
78896;HTU21D;68284;59.124;37.910;2023-04-24T11:43:08;28.08;18.83
78896;HTU21D;68284;59.124;37.910;2023-04-24T11:46:33;28.42;18.45
78896;HTU21D;68284;59.124;37.910;2023-04-24T11:49:06;28.72;18.28
78896;HTU21D;68284;59.124;37.910;2023-04-24T11:51:39;28.98;17.99
78896;HTU21D;68284;59.124;37.910;2023-04-24T11:54:07;29.17;17.54
78896;HTU21D;68284;59.124;37.910;2023-04-24T11:56:35;29.30;17.50
78896;HTU21D;68284;59.124;37.910;2023-04-24T11:59:06;29.49;16.99
78896;HTU21D;68284;59.124;37.910;2023-04-24T12:02:06;29.53;16.77
78896;HTU21D;68284;59.124;37.910;2023-04-24T12:04:40;29.62;16.52
78896;HTU21D;68284;59.124;37.910;2023-04-24T12:07:09;29.62;16.58
78896;HTU21D;68284;59.124;37.910;2023-04-24T12:09:44;29.75;16.31
78896;HTU21D;68284;59.124;37.910;2023-04-24T12:12:18;29.92;16.25
78896;HTU21D;68284;59.124;37.910;2023-04-24T12:14:48;30.13;16.02
78896;HTU21D;68284;59.124;37.910;2023-04-24T12:17:16;30.26;15.82
78896;HTU21D;68284;59.124;37.910;2023-04-24T12:19:47;30.38;15.80
78896;HTU21D;68284;59.124;37.910;2023-04-24T12:22:18;30.42;15.50
78896;HTU21D;68284;59.124;37.910;2023-04-24T12:25:03;30.49;15.39
78896;HTU21D;68284;59.124;37.910;2023-04-24T12:27:32;30.50;15.33
78896;HTU21D;68284;59.124;37.910;2023-04-24T12:30:00;30.61;15.45
78896;HTU21D;68284;59.124;37.910;2023-04-24T12:32:27;30.78;15.20
78896;HTU21D;68284;59.124;37.910;2023-04-24T12:35:00;30.94;15.11
78896;HTU21D;68284;59.124;37.910;2023-04-24T12:37:33;31.01;14.86
78896;HTU21D;68284;59.124;37.910;2023-04-24T12:40:10;31.14;14.59
78896;HTU21D;68284;59.124;37.910;2023-04-24T12:42:47;31.20;14.62
78896;HTU21D;68284;59.124;37.910;2023-04-24T12:45:14;31.34;14.63
78896;HTU21D;68284;59.124;37.910;2023-04-24T12:47:43;31.64;14.48
78896;HTU21D;68284;59.124;37.910;2023-04-24T12:50:12;31.94;14.06
78896;HTU21D;68284;59.124;37.910;2023-04-24T12:52:39;31.92;13.93
78896;HTU21D;68284;59.124;37.910;2023-04-24T12:55:10;31.84;14.05
78896;HTU21D;68284;59.124;37.910;2023-04-24T12:57:45;31.98;14.00
78896;HTU21D;68284;59.124;37.910;2023-04-24T13:00:23;31.94;13.96
78896;HTU21D;68284;59.124;37.910;2023-04-24T13:02:57;31.76;14.15
78896;HTU21D;68284;59.124;37.910;2023-04-24T13:05:23;31.95;13.89
78896;HTU21D;68284;59.124;37.910;2023-04-24T13:07:51;32.15;13.70
78896;HTU21D;68284;59.124;37.910;2023-04-24T13:10:17;32.37;13.65
78896;HTU21D;68284;59.124;37.910;2023-04-24T13:12:46;32.42;13.42
78896;HTU21D;68284;59.124;37.910;2023-04-24T13:15:13;32.12;13.29
78896;HTU21D;68284;59.124;37.910;2023-04-24T13:17:46;31.34;13.89
78896;HTU21D;68284;59.124;37.910;2023-04-24T13:20:14;31.05;14.46
78896;HTU21D;68284;59.124;37.910;2023-04-24T13:22:41;31.23;14.36
78896;HTU21D;68284;59.124;37.910;2023-04-24T13:25:08;31.34;14.24
78896;HTU21D;68284;59.124;37.910;2023-04-24T13:27:38;31.25;14.23
78896;HTU21D;68284;59.124;37.910;2023-04-24T13:30:09;31.01;14.47
78896;HTU21D;68284;59.124;37.910;2023-04-24T13:32:37;30.66;14.64
78896;HTU21D;68284;59.124;37.910;2023-04-24T13:35:05;29.96;15.13
78896;HTU21D;68284;59.124;37.910;2023-04-24T13:37:32;29.70;15.59
78896;HTU21D;68284;59.124;37.910;2023-04-24T13:40:01;29.98;15.64
78896;HTU21D;68284;59.124;37.910;2023-04-24T13:42:28;30.51;15.30
78896;HTU21D;68284;59.124;37.910;2023-04-24T13:44:55;30.99;14.99
78896;HTU21D;68284;59.124;37.910;2023-04-24T13:47:22;31.46;14.68
78896;HTU21D;68284;59.124;37.910;2023-04-24T13:49:49;31.82;14.13
78896;HTU21D;68284;59.124;37.910;2023-04-24T13:52:15;31.68;13.97
78896;HTU21D;68284;59.124;37.910;2023-04-24T13:54:42;31.24;14.42
78896;HTU21D;68284;59.124;37.910;2023-04-24T13:57:09;31.02;14.75
78896;HTU21D;68284;59.124;37.910;2023-04-24T13:59:37;31.22;14.71
78896;HTU21D;68284;59.124;37.910;2023-04-24T14:02:06;31.58;14.47
78896;HTU21D;68284;59.124;37.910;2023-04-24T14:04:36;31.94;13.87
78896;HTU21D;68284;59.124;37.910;2023-04-24T14:07:04;31.69;13.85
78896;HTU21D;68284;59.124;37.910;2023-04-24T14:09:32;31.12;14.23
78896;HTU21D;68284;59.124;37.910;2023-04-24T14:11:59;31.02;14.40
78896;HTU21D;68284;59.124;37.910;2023-04-24T14:14:27;31.09;14.42
78896;HTU21D;68284;59.124;37.910;2023-04-24T14:17:00;31.06;14.34
78896;HTU21D;68284;59.124;37.910;2023-04-24T14:19:28;31.04;14.29
78896;HTU21D;68284;59.124;37.910;2023-04-24T14:22:00;31.02;14.31
78896;HTU21D;68284;59.124;37.910;2023-04-24T14:24:29;31.04;14.27
78896;HTU21D;68284;59.124;37.910;2023-04-24T14:26:57;31.10;14.33
78896;HTU21D;68284;59.124;37.910;2023-04-24T14:29:24;31.31;14.26
78896;HTU21D;68284;59.124;37.910;2023-04-24T14:31:52;31.44;14.03
78896;HTU21D;68284;59.124;37.910;2023-04-24T14:34:24;31.48;13.96
78896;HTU21D;68284;59.124;37.910;2023-04-24T14:36:52;31.49;13.94
78896;HTU21D;68284;59.124;37.910;2023-04-24T14:39:19;31.46;13.97
78896;HTU21D;68284;59.124;37.910;2023-04-24T14:41:50;31.56;13.95
78896;HTU21D;68284;59.124;37.910;2023-04-24T14:44:22;31.69;13.84
78896;HTU21D;68284;59.124;37.910;2023-04-24T14:46:54;31.71;13.77
78896;HTU21D;68284;59.124;37.910;2023-04-24T14:49:44;31.58;13.73
78896;HTU21D;68284;59.124;37.910;2023-04-24T14:52:24;31.49;13.87
78896;HTU21D;68284;59.124;37.910;2023-04-24T14:54:55;31.59;13.78
78896;HTU21D;68284;59.124;37.910;2023-04-24T14:57:27;31.60;13.69
78896;HTU21D;68284;59.124;37.910;2023-04-24T15:00:17;31.46;13.76
78896;HTU21D;68284;59.124;37.910;2023-04-24T15:03:20;31.22;13.94
78896;HTU21D;68284;59.124;37.910;2023-04-24T15:06:19;31.09;14.20
78896;HTU21D;68284;59.124;37.910;2023-04-24T15:08:49;31.22;14.19
78896;HTU21D;68284;59.124;37.910;2023-04-24T15:11:18;31.49;14.04
78896;HTU21D;68284;59.124;37.910;2023-04-24T15:14:12;31.68;13.91
78896;HTU21D;68284;59.124;37.910;2023-04-24T15:16:47;31.73;13.87
78896;HTU21D;68284;59.124;37.910;2023-04-24T15:19:17;31.64;13.91
78896;HTU21D;68284;59.124;37.910;2023-04-24T15:22:15;31.52;13.84
78896;HTU21D;68284;59.124;37.910;2023-04-24T15:24:58;31.20;14.17
78896;HTU21D;68284;59.124;37.910;2023-04-24T15:27:44;30.90;14.46
78896;HTU21D;68284;59.124;37.910;2023-04-24T15:30:58;30.67;14.70
78896;HTU21D;68284;59.124;37.910;2023-04-24T15:33:46;30.54;14.82
78896;HTU21D;68284;59.124;37.910;2023-04-24T15:36:29;30.41;14.99
78896;HTU21D;68284;59.124;37.910;2023-04-24T15:39:01;30.31;15.13
78896;HTU21D;68284;59.124;37.910;2023-04-24T15:41:31;30.23;15.21
78896;HTU21D;68284;59.124;37.910;2023-04-24T15:44:16;30.12;15.25